Terminal Aerodrome Forecast
Issued by NWS

Home | Current Version | Previous Version | Text Only | Print | Product List | Glossary On
Versions: 1 2 3 4 5 6 7 8 9 10 11 12 13 14 15 16 17 18 19
000
FTUS43 KLSX 260500
TAFCPS
TAF
KCPS 260521Z 2606/2706 14005KT P6SM BKN250
     FM261200 14007KT P6SM OVC080
     FM261600 15008KT 2SM -SN BR SCT006 OVC015
     FM262100 22006KT 3SM -RASN BR BKN006 OVC010
     FM270000 32007KT P6SM -SN OVC015=

USA.gov is the U.S. government's official web portal to all federal, state and local government web resources and services.